sensor_id;sensor_type;location;lat;lon;timestamp;temperature;humidity
38860;DHT22;24609;48.316;16.174;2023-11-18T00:01:15;4.00;1.00
38860;DHT22;24609;48.316;16.174;2023-11-18T00:03:41;3.90;20.10
38860;DHT22;24609;48.316;16.174;2023-11-18T00:06:07;3.90;99.90
38860;DHT22;24609;48.316;16.174;2023-11-18T00:08:33;3.80;99.90
38860;DHT22;24609;48.316;16.174;2023-11-18T00:10:59;3.80;99.90
38860;DHT22;24609;48.316;16.174;2023-11-18T00:13:25;3.70;99.90
38860;DHT22;24609;48.316;16.174;2023-11-18T00:15:52;3.70;99.90
38860;DHT22;24609;48.316;16.174;2023-11-18T00:18:18;3.70;99.90
38860;DHT22;24609;48.316;16.174;2023-11-18T00:20:44;3.70;99.90
38860;DHT22;24609;48.316;16.174;2023-11-18T00:23:11;3.70;99.90
38860;DHT22;24609;48.316;16.174;2023-11-18T00:25:36;3.70;99.90
38860;DHT22;24609;48.316;16.174;2023-11-18T00:28:05;3.70;99.90
38860;DHT22;24609;48.316;16.174;2023-11-18T00:30:33;3.70;99.90
38860;DHT22;24609;48.316;16.174;2023-11-18T00:32:59;3.80;99.90
38860;DHT22;24609;48.316;16.174;2023-11-18T00:35:25;3.80;99.90
38860;DHT22;24609;48.316;16.174;2023-11-18T00:37:50;3.90;99.90
38860;DHT22;24609;48.316;16.174;2023-11-18T00:40:16;3.80;99.90
38860;DHT22;24609;48.316;16.174;2023-11-18T00:42:45;3.80;1.00
38860;DHT22;24609;48.316;16.174;2023-11-18T00:45:11;3.80;99.90
38860;DHT22;24609;48.316;16.174;2023-11-18T00:47:40;3.80;99.90
38860;DHT22;24609;48.316;16.174;2023-11-18T00:50:08;3.80;99.90
38860;DHT22;24609;48.316;16.174;2023-11-18T00:52:34;3.70;99.90
38860;DHT22;24609;48.316;16.174;2023-11-18T00:55:00;3.60;99.90
38860;DHT22;24609;48.316;16.174;2023-11-18T00:57:26;3.70;99.90
38860;DHT22;24609;48.316;16.174;2023-11-18T00:59:52;3.70;1.00
38860;DHT22;24609;48.316;16.174;2023-11-18T01:02:17;3.70;99.90
38860;DHT22;24609;48.316;16.174;2023-11-18T01:04:46;3.60;99.90
38860;DHT22;24609;48.316;16.174;2023-11-18T01:07:12;3.60;1.00
38860;DHT22;24609;48.316;16.174;2023-11-18T01:09:38;3.60;99.90
38860;DHT22;24609;48.316;16.174;2023-11-18T01:12:05;3.60;99.40
38860;DHT22;24609;48.316;16.174;2023-11-18T01:14:33;3.60;99.90
38860;DHT22;24609;48.316;16.174;2023-11-18T01:16:59;3.60;1.00
38860;DHT22;24609;48.316;16.174;2023-11-18T01:19:25;3.60;99.90
38860;DHT22;24609;48.316;16.174;2023-11-18T01:21:51;3.60;1.00
38860;DHT22;24609;48.316;16.174;2023-11-18T01:24:18;3.60;99.90
38860;DHT22;24609;48.316;16.174;2023-11-18T01:26:44;3.60;99.90
38860;DHT22;24609;48.316;16.174;2023-11-18T01:29:11;3.60;99.90
38860;DHT22;24609;48.316;16.174;2023-11-18T01:31:36;3.60;99.90
38860;DHT22;24609;48.316;16.174;2023-11-18T01:34:02;3.50;99.90
38860;DHT22;24609;48.316;16.174;2023-11-18T01:36:30;3.50;1.00
38860;DHT22;24609;48.316;16.174;2023-11-18T01:38:56;3.40;1.00
38860;DHT22;24609;48.316;16.174;2023-11-18T01:41:22;3.50;1.00
38860;DHT22;24609;48.316;16.174;2023-11-18T01:43:48;3.50;99.90
38860;DHT22;24609;48.316;16.174;2023-11-18T01:46:13;3.50;99.90
38860;DHT22;24609;48.316;16.174;2023-11-18T01:48:41;3.60;47.10
38860;DHT22;24609;48.316;16.174;2023-11-18T01:51:08;3.50;1.00
38860;DHT22;24609;48.316;16.174;2023-11-18T01:53:38;3.50;1.00
38860;DHT22;24609;48.316;16.174;2023-11-18T01:56:06;3.40;99.90
38860;DHT22;24609;48.316;16.174;2023-11-18T01:58:35;3.30;99.90
38860;DHT22;24609;48.316;16.174;2023-11-18T02:01:02;3.30;99.90
38860;DHT22;24609;48.316;16.174;2023-11-18T02:03:29;3.30;73.00
38860;DHT22;24609;48.316;16.174;2023-11-18T02:05:56;3.20;99.90
38860;DHT22;24609;48.316;16.174;2023-11-18T02:08:22;3.10;99.90
38860;DHT22;24609;48.316;16.174;2023-11-18T02:10:49;3.00;99.90
38860;DHT22;24609;48.316;16.174;2023-11-18T02:13:23;2.90;1.00
38860;DHT22;24609;48.316;16.174;2023-11-18T02:16:04;2.80;1.00
38860;DHT22;24609;48.316;16.174;2023-11-18T02:18:32;2.90;1.00
38860;DHT22;24609;48.316;16.174;2023-11-18T02:20:59;3.10;99.90
38860;DHT22;24609;48.316;16.174;2023-11-18T02:23:28;3.10;99.90
38860;DHT22;24609;48.316;16.174;2023-11-18T02:25:55;3.30;1.00
38860;DHT22;24609;48.316;16.174;2023-11-18T02:28:23;3.40;99.90
38860;DHT22;24609;48.316;16.174;2023-11-18T02:30:52;3.50;29.00
38860;DHT22;24609;48.316;16.174;2023-11-18T02:33:27;3.60;99.90
38860;DHT22;24609;48.316;16.174;2023-11-18T02:36:31;3.60;1.00
38860;DHT22;24609;48.316;16.174;2023-11-18T02:39:04;3.60;99.90
38860;DHT22;24609;48.316;16.174;2023-11-18T02:41:37;3.60;99.90
38860;DHT22;24609;48.316;16.174;2023-11-18T02:44:04;3.60;99.90
38860;DHT22;24609;48.316;16.174;2023-11-18T02:46:36;3.50;1.00
38860;DHT22;24609;48.316;16.174;2023-11-18T02:49:03;3.50;1.00
38860;DHT22;24609;48.316;16.174;2023-11-18T02:51:29;3.50;99.90
38860;DHT22;24609;48.316;16.174;2023-11-18T02:53:59;3.60;1.00
38860;DHT22;24609;48.316;16.174;2023-11-18T02:56:25;3.60;4.60
38860;DHT22;24609;48.316;16.174;2023-11-18T02:58:50;3.60;1.00
38860;DHT22;24609;48.316;16.174;2023-11-18T03:01:16;3.60;1.00
38860;DHT22;24609;48.316;16.174;2023-11-18T03:03:41;3.60;43.60
38860;DHT22;24609;48.316;16.174;2023-11-18T03:06:08;3.60;1.00
38860;DHT22;24609;48.316;16.174;2023-11-18T03:08:34;3.60;99.90
38860;DHT22;24609;48.316;16.174;2023-11-18T03:11:00;3.60;49.00
38860;DHT22;24609;48.316;16.174;2023-11-18T03:13:25;3.60;43.70
38860;DHT22;24609;48.316;16.174;2023-11-18T03:15:51;3.50;1.00
38860;DHT22;24609;48.316;16.174;2023-11-18T03:18:17;3.60;1.00
38860;DHT22;24609;48.316;16.174;2023-11-18T03:20:43;3.60;99.90
38860;DHT22;24609;48.316;16.174;2023-11-18T03:23:09;3.60;99.90
38860;DHT22;24609;48.316;16.174;2023-11-18T03:25:35;3.70;99.90
38860;DHT22;24609;48.316;16.174;2023-11-18T03:28:01;3.70;1.00
38860;DHT22;24609;48.316;16.174;2023-11-18T03:30:26;3.70;20.40
38860;DHT22;24609;48.316;16.174;2023-11-18T03:32:54;3.70;99.90
38860;DHT22;24609;48.316;16.174;2023-11-18T03:35:20;3.70;99.90
38860;DHT22;24609;48.316;16.174;2023-11-18T03:37:46;3.70;99.90
38860;DHT22;24609;48.316;16.174;2023-11-18T03:40:13;3.80;99.90
38860;DHT22;24609;48.316;16.174;2023-11-18T03:42:40;3.80;1.00
38860;DHT22;24609;48.316;16.174;2023-11-18T03:45:06;3.80;1.00
38860;DHT22;24609;48.316;16.174;2023-11-18T03:47:32;3.80;99.90
38860;DHT22;24609;48.316;16.174;2023-11-18T03:49:59;3.80;99.90
38860;DHT22;24609;48.316;16.174;2023-11-18T03:52:25;3.80;1.00
38860;DHT22;24609;48.316;16.174;2023-11-18T03:54:51;3.80;99.90
38860;DHT22;24609;48.316;16.174;2023-11-18T03:57:17;3.80;99.90
38860;DHT22;24609;48.316;16.174;2023-11-18T03:59:42;3.70;1.00
38860;DHT22;24609;48.316;16.174;2023-11-18T04:02:08;3.70;99.90
38860;DHT22;24609;48.316;16.174;2023-11-18T04:04:39;3.70;99.90
38860;DHT22;24609;48.316;16.174;2023-11-18T04:07:04;3.70;1.00
38860;DHT22;24609;48.316;16.174;2023-11-18T04:09:32;3.70;99.90
38860;DHT22;24609;48.316;16.174;2023-11-18T04:11:57;3.70;99.90
38860;DHT22;24609;48.316;16.174;2023-11-18T04:14:24;3.70;1.00
38860;DHT22;24609;48.316;16.174;2023-11-18T04:16:51;3.60;99.90
38860;DHT22;24609;48.316;16.174;2023-11-18T04:19:16;3.60;99.90
38860;DHT22;24609;48.316;16.174;2023-11-18T04:21:42;3.60;99.90
38860;DHT22;24609;48.316;16.174;2023-11-18T04:24:10;3.60;99.90
38860;DHT22;24609;48.316;16.174;2023-11-18T04:26:36;3.60;1.00
38860;DHT22;24609;48.316;16.174;2023-11-18T04:29:02;3.60;99.90
38860;DHT22;24609;48.316;16.174;2023-11-18T04:31:28;3.60;99.90
38860;DHT22;24609;48.316;16.174;2023-11-18T04:33:53;3.70;1.00
38860;DHT22;24609;48.316;16.174;2023-11-18T04:36:21;3.70;1.00
38860;DHT22;24609;48.316;16.174;2023-11-18T04:38:47;3.70;99.90
38860;DHT22;24609;48.316;16.174;2023-11-18T04:41:15;3.70;1.00
38860;DHT22;24609;48.316;16.174;2023-11-18T04:43:41;3.70;91.10
38860;DHT22;24609;48.316;16.174;2023-11-18T04:46:07;3.70;99.90
38860;DHT22;24609;48.316;16.174;2023-11-18T04:48:33;3.80;1.00
38860;DHT22;24609;48.316;16.174;2023-11-18T04:51:00;3.80;99.90
38860;DHT22;24609;48.316;16.174;2023-11-18T04:53:26;3.80;99.90
38860;DHT22;24609;48.316;16.174;2023-11-18T04:55:51;3.90;99.90
38860;DHT22;24609;48.316;16.174;2023-11-18T04:58:17;3.80;99.90
38860;DHT22;24609;48.316;16.174;2023-11-18T05:00:43;3.90;39.10
38860;DHT22;24609;48.316;16.174;2023-11-18T05:03:09;3.90;99.90
38860;DHT22;24609;48.316;16.174;2023-11-18T05:05:38;3.90;99.90
38860;DHT22;24609;48.316;16.174;2023-11-18T05:08:07;3.90;1.00
38860;DHT22;24609;48.316;16.174;2023-11-18T05:10:34;3.90;99.90
38860;DHT22;24609;48.316;16.174;2023-11-18T05:13:00;3.90;1.00
38860;DHT22;24609;48.316;16.174;2023-11-18T05:15:26;3.90;1.00
38860;DHT22;24609;48.316;16.174;2023-11-18T05:17:52;3.90;99.90
38860;DHT22;24609;48.316;16.174;2023-11-18T05:20:19;3.90;99.90
38860;DHT22;24609;48.316;16.174;2023-11-18T05:22:45;3.80;99.90
38860;DHT22;24609;48.316;16.174;2023-11-18T05:25:11;3.70;99.90
38860;DHT22;24609;48.316;16.174;2023-11-18T05:27:37;3.70;99.90
38860;DHT22;24609;48.316;16.174;2023-11-18T05:30:06;3.60;99.90
38860;DHT22;24609;48.316;16.174;2023-11-18T05:32:32;3.70;99.90
38860;DHT22;24609;48.316;16.174;2023-11-18T05:34:59;3.70;1.00
38860;DHT22;24609;48.316;16.174;2023-11-18T05:37:25;3.70;1.00
38860;DHT22;24609;48.316;16.174;2023-11-18T05:39:51;3.70;99.90
38860;DHT22;24609;48.316;16.174;2023-11-18T05:42:25;3.70;99.90
38860;DHT22;24609;48.316;16.174;2023-11-18T05:44:51;3.70;99.90
38860;DHT22;24609;48.316;16.174;2023-11-18T05:47:27;3.70;1.00
38860;DHT22;24609;48.316;16.174;2023-11-18T05:49:53;3.70;99.90
38860;DHT22;24609;48.316;16.174;2023-11-18T05:52:20;3.70;99.90
38860;DHT22;24609;48.316;16.174;2023-11-18T05:54:46;3.70;99.90
38860;DHT22;24609;48.316;16.174;2023-11-18T05:57:14;3.70;1.00
38860;DHT22;24609;48.316;16.174;2023-11-18T05:59:40;3.60;1.00
38860;DHT22;24609;48.316;16.174;2023-11-18T06:02:06;3.70;1.00
38860;DHT22;24609;48.316;16.174;2023-11-18T06:04:31;3.70;27.70
38860;DHT22;24609;48.316;16.174;2023-11-18T06:06:57;3.70;1.00
38860;DHT22;24609;48.316;16.174;2023-11-18T06:09:22;3.70;1.00
38860;DHT22;24609;48.316;16.174;2023-11-18T06:11:51;3.70;1.00
38860;DHT22;24609;48.316;16.174;2023-11-18T06:14:19;3.70;99.90
38860;DHT22;24609;48.316;16.174;2023-11-18T06:16:45;3.70;99.90
38860;DHT22;24609;48.316;16.174;2023-11-18T06:19:10;3.60;99.90
38860;DHT22;24609;48.316;16.174;2023-11-18T06:21:36;3.70;99.90
38860;DHT22;24609;48.316;16.174;2023-11-18T06:24:02;3.70;1.00
38860;DHT22;24609;48.316;16.174;2023-11-18T06:26:32;3.70;99.90
38860;DHT22;24609;48.316;16.174;2023-11-18T06:29:02;3.70;99.90
38860;DHT22;24609;48.316;16.174;2023-11-18T06:31:27;3.70;99.90
38860;DHT22;24609;48.316;16.174;2023-11-18T06:33:55;3.70;73.30
38860;DHT22;24609;48.316;16.174;2023-11-18T06:36:21;3.70;1.00
38860;DHT22;24609;48.316;16.174;2023-11-18T06:38:52;3.70;99.90
38860;DHT22;24609;48.316;16.174;2023-11-18T06:41:20;3.80;1.00
38860;DHT22;24609;48.316;16.174;2023-11-18T06:43:49;3.80;1.00
38860;DHT22;24609;48.316;16.174;2023-11-18T06:46:25;3.80;99.90
38860;DHT22;24609;48.316;16.174;2023-11-18T06:48:53;3.90;1.00
38860;DHT22;24609;48.316;16.174;2023-11-18T06:51:29;3.90;1.00
38860;DHT22;24609;48.316;16.174;2023-11-18T06:53:56;3.90;99.90
38860;DHT22;24609;48.316;16.174;2023-11-18T06:56:26;3.90;1.00
38860;DHT22;24609;48.316;16.174;2023-11-18T06:58:53;4.00;1.00
38860;DHT22;24609;48.316;16.174;2023-11-18T07:01:19;4.00;1.00
38860;DHT22;24609;48.316;16.174;2023-11-18T07:03:45;4.00;99.90
38860;DHT22;24609;48.316;16.174;2023-11-18T07:06:17;4.00;99.90
38860;DHT22;24609;48.316;16.174;2023-11-18T07:08:48;4.00;1.00
38860;DHT22;24609;48.316;16.174;2023-11-18T07:11:15;4.00;1.00
38860;DHT22;24609;48.316;16.174;2023-11-18T07:13:41;4.00;1.00
38860;DHT22;24609;48.316;16.174;2023-11-18T07:16:07;4.10;1.00
38860;DHT22;24609;48.316;16.174;2023-11-18T07:18:35;4.10;15.90
38860;DHT22;24609;48.316;16.174;2023-11-18T07:21:01;4.10;72.60
38860;DHT22;24609;48.316;16.174;2023-11-18T07:23:28;4.20;1.00
38860;DHT22;24609;48.316;16.174;2023-11-18T07:25:54;4.30;1.00
38860;DHT22;24609;48.316;16.174;2023-11-18T07:28:21;4.30;99.90
38860;DHT22;24609;48.316;16.174;2023-11-18T07:30:48;4.40;1.00
38860;DHT22;24609;48.316;16.174;2023-11-18T07:33:17;4.30;99.90
38860;DHT22;24609;48.316;16.174;2023-11-18T07:35:43;4.30;74.70
38860;DHT22;24609;48.316;16.174;2023-11-18T07:38:09;4.30;77.30
38860;DHT22;24609;48.316;16.174;2023-11-18T07:40:36;4.30;99.90
38860;DHT22;24609;48.316;16.174;2023-11-18T07:43:03;4.20;99.90
38860;DHT22;24609;48.316;16.174;2023-11-18T07:45:35;4.20;1.00
38860;DHT22;24609;48.316;16.174;2023-11-18T07:48:07;4.20;1.00
38860;DHT22;24609;48.316;16.174;2023-11-18T07:50:37;4.20;1.00
38860;DHT22;24609;48.316;16.174;2023-11-18T07:53:03;4.20;1.00
38860;DHT22;24609;48.316;16.174;2023-11-18T07:55:32;4.20;1.00
38860;DHT22;24609;48.316;16.174;2023-11-18T07:58:00;4.20;99.90
38860;DHT22;24609;48.316;16.174;2023-11-18T08:00:27;4.20;1.00
38860;DHT22;24609;48.316;16.174;2023-11-18T08:02:56;4.30;1.00
38860;DHT22;24609;48.316;16.174;2023-11-18T08:05:22;4.30;99.90
38860;DHT22;24609;48.316;16.174;2023-11-18T08:07:49;4.30;99.90
38860;DHT22;24609;48.316;16.174;2023-11-18T08:10:14;4.40;68.10
38860;DHT22;24609;48.316;16.174;2023-11-18T08:12:44;4.40;1.00
38860;DHT22;24609;48.316;16.174;2023-11-18T08:15:10;4.40;99.90
38860;DHT22;24609;48.316;16.174;2023-11-18T08:17:36;4.50;99.90
38860;DHT22;24609;48.316;16.174;2023-11-18T08:20:02;4.50;1.00
38860;DHT22;24609;48.316;16.174;2023-11-18T08:22:42;4.50;1.00
38860;DHT22;24609;48.316;16.174;2023-11-18T08:25:10;4.50;99.90
38860;DHT22;24609;48.316;16.174;2023-11-18T08:27:37;4.50;99.90
38860;DHT22;24609;48.316;16.174;2023-11-18T08:30:03;4.60;1.00
38860;DHT22;24609;48.316;16.174;2023-11-18T08:32:36;4.70;1.00
38860;DHT22;24609;48.316;16.174;2023-11-18T08:35:04;4.60;1.00
38860;DHT22;24609;48.316;16.174;2023-11-18T08:37:33;4.60;33.50
38860;DHT22;24609;48.316;16.174;2023-11-18T08:40:02;4.70;1.00
38860;DHT22;24609;48.316;16.174;2023-11-18T08:42:28;4.80;94.10
38860;DHT22;24609;48.316;16.174;2023-11-18T08:44:55;4.80;99.90
38860;DHT22;24609;48.316;16.174;2023-11-18T08:47:20;4.80;99.90
38860;DHT22;24609;48.316;16.174;2023-11-18T08:49:46;4.90;1.00
38860;DHT22;24609;48.316;16.174;2023-11-18T08:52:12;4.90;99.90
38860;DHT22;24609;48.316;16.174;2023-11-18T08:54:39;5.00;99.90
38860;DHT22;24609;48.316;16.174;2023-11-18T08:57:24;5.20;99.90
38860;DHT22;24609;48.316;16.174;2023-11-18T08:59:51;5.30;99.90
38860;DHT22;24609;48.316;16.174;2023-11-18T09:02:20;5.20;1.00
38860;DHT22;24609;48.316;16.174;2023-11-18T09:04:51;5.40;99.90
38860;DHT22;24609;48.316;16.174;2023-11-18T09:07:18;5.30;99.90
38860;DHT22;24609;48.316;16.174;2023-11-18T09:09:44;5.40;99.90
38860;DHT22;24609;48.316;16.174;2023-11-18T09:12:12;5.40;26.10
38860;DHT22;24609;48.316;16.174;2023-11-18T09:14:40;5.40;1.00
38860;DHT22;24609;48.316;16.174;2023-11-18T09:17:08;5.30;1.00
38860;DHT22;24609;48.316;16.174;2023-11-18T09:19:34;5.40;54.00
38860;DHT22;24609;48.316;16.174;2023-11-18T09:22:00;5.50;99.90
38860;DHT22;24609;48.316;16.174;2023-11-18T09:24:26;5.40;1.00
38860;DHT22;24609;48.316;16.174;2023-11-18T09:26:52;5.30;1.00
38860;DHT22;24609;48.316;16.174;2023-11-18T09:29:17;5.40;99.90
38860;DHT22;24609;48.316;16.174;2023-11-18T09:31:47;5.40;99.90
38860;DHT22;24609;48.316;16.174;2023-11-18T09:34:18;5.40;99.10
38860;DHT22;24609;48.316;16.174;2023-11-18T09:36:52;5.40;99.90
38860;DHT22;24609;48.316;16.174;2023-11-18T09:39:19;5.50;99.90
38860;DHT22;24609;48.316;16.174;2023-11-18T09:42:06;5.50;92.80
38860;DHT22;24609;48.316;16.174;2023-11-18T09:44:35;5.50;1.00
38860;DHT22;24609;48.316;16.174;2023-11-18T09:47:04;5.50;1.00
38860;DHT22;24609;48.316;16.174;2023-11-18T09:49:40;5.60;1.00
38860;DHT22;24609;48.316;16.174;2023-11-18T09:52:07;5.70;1.00
38860;DHT22;24609;48.316;16.174;2023-11-18T09:54:40;5.70;99.90
38860;DHT22;24609;48.316;16.174;2023-11-18T10:00:12;5.70;99.90
38860;DHT22;24609;48.316;16.174;2023-11-18T10:02:46;5.80;99.90
38860;DHT22;24609;48.316;16.174;2023-11-18T10:05:13;6.00;99.90
38860;DHT22;24609;48.316;16.174;2023-11-18T10:07:44;5.90;99.90
38860;DHT22;24609;48.316;16.174;2023-11-18T10:10:12;5.90;99.90
38860;DHT22;24609;48.316;16.174;2023-11-18T10:12:45;6.00;99.90
38860;DHT22;24609;48.316;16.174;2023-11-18T10:15:14;5.90;99.90
38860;DHT22;24609;48.316;16.174;2023-11-18T10:17:43;6.00;99.90
38860;DHT22;24609;48.316;16.174;2023-11-18T10:23:14;5.60;1.00
38860;DHT22;24609;48.316;16.174;2023-11-18T10:25:52;5.60;24.50
38860;DHT22;24609;48.316;16.174;2023-11-18T10:28:24;5.50;4.50
38860;DHT22;24609;48.316;16.174;2023-11-18T10:30:53;5.50;46.40
38860;DHT22;24609;48.316;16.174;2023-11-18T10:33:19;5.50;99.90
38860;DHT22;24609;48.316;16.174;2023-11-18T10:35:50;5.50;1.00
38860;DHT22;24609;48.316;16.174;2023-11-18T10:38:18;5.50;99.90
38860;DHT22;24609;48.316;16.174;2023-11-18T10:40:44;5.50;99.90
38860;DHT22;24609;48.316;16.174;2023-11-18T10:43:12;5.50;99.20
38860;DHT22;24609;48.316;16.174;2023-11-18T10:45:42;5.50;99.90
38860;DHT22;24609;48.316;16.174;2023-11-18T10:48:08;5.60;99.90
38860;DHT22;24609;48.316;16.174;2023-11-18T10:50:34;5.70;99.90
38860;DHT22;24609;48.316;16.174;2023-11-18T10:53:00;5.70;99.90
38860;DHT22;24609;48.316;16.174;2023-11-18T10:55:47;5.80;99.90
38860;DHT22;24609;48.316;16.174;2023-11-18T10:58:13;5.80;51.60
38860;DHT22;24609;48.316;16.174;2023-11-18T11:03:15;5.90;45.40
38860;DHT22;24609;48.316;16.174;2023-11-18T11:05:41;5.90;71.00
38860;DHT22;24609;48.316;16.174;2023-11-18T11:08:10;6.00;99.90
38860;DHT22;24609;48.316;16.174;2023-11-18T11:10:39;6.10;12.40
38860;DHT22;24609;48.316;16.174;2023-11-18T11:13:08;6.00;1.00
38860;DHT22;24609;48.316;16.174;2023-11-18T11:15:42;6.10;1.00
38860;DHT22;24609;48.316;16.174;2023-11-18T11:18:12;6.10;1.00
38860;DHT22;24609;48.316;16.174;2023-11-18T11:21:16;6.20;1.00
38860;DHT22;24609;48.316;16.174;2023-11-18T11:29:04;6.40;1.00
38860;DHT22;24609;48.316;16.174;2023-11-18T11:31:39;6.30;1.00
38860;DHT22;24609;48.316;16.174;2023-11-18T11:34:06;6.40;1.00
38860;DHT22;24609;48.316;16.174;2023-11-18T11:36:47;6.40;99.90
38860;DHT22;24609;48.316;16.174;2023-11-18T11:39:17;6.30;1.00
38860;DHT22;24609;48.316;16.174;2023-11-18T11:41:51;6.20;1.00
38860;DHT22;24609;48.316;16.174;2023-11-18T11:44:17;6.20;1.00
38860;DHT22;24609;48.316;16.174;2023-11-18T11:46:50;6.20;99.90
38860;DHT22;24609;48.316;16.174;2023-11-18T11:49:20;6.20;99.90
38860;DHT22;24609;48.316;16.174;2023-11-18T11:54:29;6.40;99.90
38860;DHT22;24609;48.316;16.174;2023-11-18T11:56:57;6.40;99.90
38860;DHT22;24609;48.316;16.174;2023-11-18T12:02:13;6.30;1.00
38860;DHT22;24609;48.316;16.174;2023-11-18T12:04:59;6.40;99.90
38860;DHT22;24609;48.316;16.174;2023-11-18T12:07:31;6.50;99.90
38860;DHT22;24609;48.316;16.174;2023-11-18T12:10:08;6.60;8.00
38860;DHT22;24609;48.316;16.174;2023-11-18T12:12:39;6.60;3.30
38860;DHT22;24609;48.316;16.174;2023-11-18T12:15:05;6.70;18.00
38860;DHT22;24609;48.316;16.174;2023-11-18T12:20:43;6.70;1.00
38860;DHT22;24609;48.316;16.174;2023-11-18T12:23:23;6.70;1.00
38860;DHT22;24609;48.316;16.174;2023-11-18T12:25:50;6.70;1.00
38860;DHT22;24609;48.316;16.174;2023-11-18T12:28:26;6.70;1.00
38860;DHT22;24609;48.316;16.174;2023-11-18T12:30:56;6.70;1.00
38860;DHT22;24609;48.316;16.174;2023-11-18T12:33:26;6.70;1.00
38860;DHT22;24609;48.316;16.174;2023-11-18T12:41:37;6.70;1.00
38860;DHT22;24609;48.316;16.174;2023-11-18T12:44:15;6.70;1.00
38860;DHT22;24609;48.316;16.174;2023-11-18T12:47:00;6.70;1.00
38860;DHT22;24609;48.316;16.174;2023-11-18T12:49:47;6.60;99.90
38860;DHT22;24609;48.316;16.174;2023-11-18T12:52:20;6.60;99.90
38860;DHT22;24609;48.316;16.174;2023-11-18T12:54:47;6.60;99.90
38860;DHT22;24609;48.316;16.174;2023-11-18T12:57:18;6.60;99.90
38860;DHT22;24609;48.316;16.174;2023-11-18T12:59:45;6.70;99.90
38860;DHT22;24609;48.316;16.174;2023-11-18T13:02:12;6.60;99.90
38860;DHT22;24609;48.316;16.174;2023-11-18T13:04:57;6.60;99.90
38860;DHT22;24609;48.316;16.174;2023-11-18T13:07:23;6.60;99.90
38860;DHT22;24609;48.316;16.174;2023-11-18T13:09:50;6.50;99.90
38860;DHT22;24609;48.316;16.174;2023-11-18T13:12:17;6.50;99.90
38860;DHT22;24609;48.316;16.174;2023-11-18T13:14:45;6.50;1.00
38860;DHT22;24609;48.316;16.174;2023-11-18T13:17:20;6.50;1.00
38860;DHT22;24609;48.316;16.174;2023-11-18T13:19:47;6.40;1.00
38860;DHT22;24609;48.316;16.174;2023-11-18T13:22:16;6.40;99.90
38860;DHT22;24609;48.316;16.174;2023-11-18T13:24:45;6.40;99.90
38860;DHT22;24609;48.316;16.174;2023-11-18T13:27:13;6.40;99.90
38860;DHT22;24609;48.316;16.174;2023-11-18T13:29:44;6.40;99.90
38860;DHT22;24609;48.316;16.174;2023-11-18T13:32:11;6.40;99.90
38860;DHT22;24609;48.316;16.174;2023-11-18T13:34:40;6.40;99.90
38860;DHT22;24609;48.316;16.174;2023-11-18T13:37:10;6.30;1.00
38860;DHT22;24609;48.316;16.174;2023-11-18T13:39:38;6.30;1.00
38860;DHT22;24609;48.316;16.174;2023-11-18T13:42:23;6.30;99.90
38860;DHT22;24609;48.316;16.174;2023-11-18T13:44:49;6.30;1.00
38860;DHT22;24609;48.316;16.174;2023-11-18T13:47:20;6.30;99.90
38860;DHT22;24609;48.316;16.174;2023-11-18T13:49:49;6.30;99.90
38860;DHT22;24609;48.316;16.174;2023-11-18T13:52:15;6.30;99.90
38860;DHT22;24609;48.316;16.174;2023-11-18T13:54:42;6.30;99.90
38860;DHT22;24609;48.316;16.174;2023-11-18T13:57:11;6.50;99.90
38860;DHT22;24609;48.316;16.174;2023-11-18T13:59:40;6.40;99.90
38860;DHT22;24609;48.316;16.174;2023-11-18T14:02:09;6.30;99.90
38860;DHT22;24609;48.316;16.174;2023-11-18T14:04:35;6.20;99.90
38860;DHT22;24609;48.316;16.174;2023-11-18T14:07:03;6.20;99.90
38860;DHT22;24609;48.316;16.174;2023-11-18T14:09:35;6.20;99.90
38860;DHT22;24609;48.316;16.174;2023-11-18T14:12:11;6.20;99.90
38860;DHT22;24609;48.316;16.174;2023-11-18T14:14:37;6.20;99.90
38860;DHT22;24609;48.316;16.174;2023-11-18T14:17:06;6.20;99.90
38860;DHT22;24609;48.316;16.174;2023-11-18T14:19:32;6.20;99.90
38860;DHT22;24609;48.316;16.174;2023-11-18T14:22:00;6.20;99.90
38860;DHT22;24609;48.316;16.174;2023-11-18T14:24:26;6.10;99.90
38860;DHT22;24609;48.316;16.174;2023-11-18T14:26:53;6.10;99.90
38860;DHT22;24609;48.316;16.174;2023-11-18T14:29:19;6.10;99.90
38860;DHT22;24609;48.316;16.174;2023-11-18T14:31:45;6.10;99.90
38860;DHT22;24609;48.316;16.174;2023-11-18T14:34:11;6.10;99.90
38860;DHT22;24609;48.316;16.174;2023-11-18T14:36:37;6.10;99.90
38860;DHT22;24609;48.316;16.174;2023-11-18T14:39:04;6.10;99.90
38860;DHT22;24609;48.316;16.174;2023-11-18T14:41:30;6.10;99.90
38860;DHT22;24609;48.316;16.174;2023-11-18T14:43:57;6.00;99.90
38860;DHT22;24609;48.316;16.174;2023-11-18T14:46:23;6.00;99.90
38860;DHT22;24609;48.316;16.174;2023-11-18T14:48:49;6.00;99.90
38860;DHT22;24609;48.316;16.174;2023-11-18T14:51:17;6.00;99.90
38860;DHT22;24609;48.316;16.174;2023-11-18T14:53:42;6.00;99.90
38860;DHT22;24609;48.316;16.174;2023-11-18T14:56:09;6.00;99.90
38860;DHT22;24609;48.316;16.174;2023-11-18T14:58:35;6.00;99.90
38860;DHT22;24609;48.316;16.174;2023-11-18T15:01:03;5.90;99.90
38860;DHT22;24609;48.316;16.174;2023-11-18T15:03:35;5.90;99.90
38860;DHT22;24609;48.316;16.174;2023-11-18T15:06:00;5.90;99.90
38860;DHT22;24609;48.316;16.174;2023-11-18T15:08:26;5.90;99.90
38860;DHT22;24609;48.316;16.174;2023-11-18T15:10:52;5.90;99.90
38860;DHT22;24609;48.316;16.174;2023-11-18T15:13:17;5.90;99.90
38860;DHT22;24609;48.316;16.174;2023-11-18T15:15:46;5.90;99.90
38860;DHT22;24609;48.316;16.174;2023-11-18T15:18:15;5.90;99.90
38860;DHT22;24609;48.316;16.174;2023-11-18T15:20:43;5.90;99.90
38860;DHT22;24609;48.316;16.174;2023-11-18T15:23:13;6.00;99.90
38860;DHT22;24609;48.316;16.174;2023-11-18T15:25:39;6.00;99.90
38860;DHT22;24609;48.316;16.174;2023-11-18T15:28:06;6.00;99.90
38860;DHT22;24609;48.316;16.174;2023-11-18T15:30:38;5.90;99.90
38860;DHT22;24609;48.316;16.174;2023-11-18T15:33:05;5.90;99.90
38860;DHT22;24609;48.316;16.174;2023-11-18T15:35:34;5.90;99.90
38860;DHT22;24609;48.316;16.174;2023-11-18T15:38:03;5.90;99.90
38860;DHT22;24609;48.316;16.174;2023-11-18T15:40:31;5.90;99.90
38860;DHT22;24609;48.316;16.174;2023-11-18T15:42:56;5.90;99.90
38860;DHT22;24609;48.316;16.174;2023-11-18T15:45:23;5.90;99.90
38860;DHT22;24609;48.316;16.174;2023-11-18T15:48:09;5.90;99.90
38860;DHT22;24609;48.316;16.174;2023-11-18T15:50:36;5.80;99.90
38860;DHT22;24609;48.316;16.174;2023-11-18T15:53:03;5.80;99.90
38860;DHT22;24609;48.316;16.174;2023-11-18T15:55:31;5.80;99.90
38860;DHT22;24609;48.316;16.174;2023-11-18T15:57:57;5.80;99.90
38860;DHT22;24609;48.316;16.174;2023-11-18T16:00:25;5.70;99.90
38860;DHT22;24609;48.316;16.174;2023-11-18T16:02:56;5.60;99.90
38860;DHT22;24609;48.316;16.174;2023-11-18T16:05:24;5.50;99.90
38860;DHT22;24609;48.316;16.174;2023-11-18T16:07:51;5.50;99.90
38860;DHT22;24609;48.316;16.174;2023-11-18T16:10:18;5.40;99.90